createdAt,value
2022-09-02T00:01:20.053Z,6.68
2022-09-02T00:06:17.732Z,7.53
2022-09-02T00:11:15.320Z,7.80
2022-09-02T00:16:11.029Z,8.02
2022-09-02T00:21:07.426Z,8.15
2022-09-02T00:26:05.061Z,8.35
2022-09-02T00:30:58.893Z,8.40
2022-09-02T00:35:52.231Z,8.45
2022-09-02T00:40:48.136Z,9.00
2022-09-02T00:45:43.284Z,10.48
2022-09-02T00:50:39.671Z,9.63
2022-09-02T00:55:37.836Z,9.82
2022-09-02T01:00:34.957Z,10.05
2022-09-02T01:05:33.358Z,9.32
2022-09-02T01:10:29.510Z,9.40
2022-09-02T01:15:22.772Z,9.40
2022-09-02T01:20:19.246Z,8.73
2022-09-02T01:25:18.228Z,8.63
2022-09-02T01:30:14.465Z,8.55
2022-09-02T01:35:08.870Z,8.73
2022-09-02T01:40:02.606Z,8.45
2022-09-02T01:44:57.503Z,8.77
2022-09-02T01:49:51.804Z,8.73
2022-09-02T01:54:46.642Z,8.80
2022-09-02T01:59:40.377Z,8.30
2022-09-02T02:04:35.221Z,7.97
2022-09-02T02:09:31.707Z,7.82
2022-09-02T02:14:25.562Z,7.85
2022-09-02T02:19:19.758Z,8.23
2022-09-02T02:24:16.259Z,8.20
2022-09-02T02:29:10.000Z,8.60
2022-09-02T02:34:05.009Z,8.05
2022-09-02T02:39:01.625Z,7.50
2022-09-02T02:44:00.332Z,7.70
2022-09-02T02:48:56.549Z,8.45
2022-09-02T02:53:49.945Z,7.72
2022-09-02T02:58:45.296Z,7.53
2022-09-02T03:03:40.222Z,7.30
2022-09-02T03:08:35.388Z,7.95
2022-09-02T03:13:29.449Z,7.53
2022-09-02T03:18:26.907Z,7.43
2022-09-02T03:23:21.804Z,7.68
2022-09-02T03:28:20.283Z,7.15
2022-09-02T03:33:14.299Z,7.05
2022-09-02T03:38:09.252Z,7.32
2022-09-02T03:43:05.210Z,6.90
2022-09-02T03:48:01.514Z,6.70
2022-09-02T03:53:00.771Z,6.93
2022-09-02T03:57:55.099Z,6.20
2022-09-02T04:02:55.449Z,6.28
2022-09-02T04:07:51.516Z,5.83
2022-09-02T04:12:45.315Z,5.50
2022-09-02T04:17:41.613Z,5.13
2022-09-02T04:22:40.688Z,5.03
2022-09-02T04:27:34.329Z,5.20
2022-09-02T04:32:29.563Z,5.13
2022-09-02T04:37:24.754Z,4.97
2022-09-02T04:42:22.449Z,5.28
2022-09-02T04:47:16.003Z,4.50
2022-09-02T04:52:10.792Z,4.53
2022-09-02T04:57:06.322Z,4.43
2022-09-02T05:02:02.331Z,4.60
2022-09-02T05:12:41.272Z,4.60
2022-09-02T05:18:04.559Z,4.50
2022-09-02T05:22:59.365Z,4.88
2022-09-02T05:27:52.713Z,4.50
2022-09-02T05:32:50.013Z,4.43
2022-09-02T05:37:49.342Z,5.15
2022-09-02T05:42:43.851Z,4.65
2022-09-02T05:47:39.997Z,5.13
2022-09-02T05:52:37.037Z,4.93
2022-09-02T05:57:46.405Z,4.88
2022-09-02T06:02:42.800Z,4.68
2022-09-02T06:07:57.932Z,4.70
2022-09-02T06:12:51.931Z,5.15
2022-09-02T06:17:49.414Z,4.30
2022-09-02T06:22:43.354Z,4.70
2022-09-02T06:27:42.144Z,4.22
2022-09-02T06:32:36.702Z,4.32
2022-09-02T06:37:36.605Z,4.50
2022-09-02T06:42:30.365Z,5.15
2022-09-02T06:47:41.019Z,4.80
2022-09-02T06:52:36.178Z,4.65
2022-09-02T06:57:34.125Z,4.18
2022-09-02T07:02:32.362Z,4.47
2022-09-02T07:07:28.921Z,4.60
2022-09-02T07:12:33.069Z,4.70
2022-09-02T07:17:33.625Z,4.70
2022-09-02T07:22:31.828Z,4.78
2022-09-02T07:27:28.318Z,4.07
2022-09-02T07:32:23.503Z,4.22
2022-09-02T07:37:16.787Z,4.22
2022-09-02T07:42:11.580Z,4.50
2022-09-02T07:47:06.520Z,4.18
2022-09-02T07:52:02.591Z,4.40
2022-09-02T07:56:57.510Z,4.15
2022-09-02T08:01:54.769Z,3.92
2022-09-02T08:06:50.712Z,4.35
2022-09-02T08:11:47.871Z,4.22
2022-09-02T08:16:44.939Z,4.50
2022-09-02T08:21:41.812Z,4.45
2022-09-02T08:26:37.299Z,4.40
2022-09-02T08:31:32.187Z,4.03
2022-09-02T08:36:25.770Z,4.18
2022-09-02T08:41:23.986Z,3.80
2022-09-02T08:46:19.317Z,4.35
2022-09-02T08:51:19.497Z,3.90
2022-09-02T08:56:17.128Z,4.32
2022-09-02T09:01:20.055Z,3.72
2022-09-02T09:06:19.854Z,3.58
2022-09-02T09:11:21.156Z,4.00
2022-09-02T09:16:26.300Z,3.55
2022-09-02T09:26:23.031Z,3.42
2022-09-02T09:31:19.943Z,3.83
2022-09-02T09:36:14.298Z,3.20
2022-09-02T09:41:29.153Z,3.92
2022-09-02T09:46:28.898Z,3.72
2022-09-02T09:51:22.495Z,3.60
2022-09-02T09:56:30.618Z,3.78
2022-09-02T10:01:31.159Z,3.70
2022-09-02T10:06:37.148Z,3.78
2022-09-02T10:11:32.436Z,4.20
2022-09-02T10:16:45.143Z,3.80
2022-09-02T10:21:58.316Z,3.50
2022-09-02T10:26:56.121Z,3.67
2022-09-02T10:32:00.873Z,3.35
2022-09-02T10:37:09.880Z,3.75
2022-09-02T10:47:11.688Z,3.15
2022-09-02T10:52:13.724Z,3.67
2022-09-02T10:57:13.027Z,3.60
2022-09-02T11:02:15.346Z,3.58
2022-09-02T11:07:14.415Z,3.40
2022-09-02T11:12:13.490Z,3.67
2022-09-02T11:17:15.837Z,3.90
2022-09-02T11:22:27.267Z,3.47
2022-09-02T11:32:47.315Z,3.88
2022-09-02T11:37:45.242Z,4.07
2022-09-02T11:42:54.538Z,3.90
2022-09-02T11:48:14.252Z,3.78
2022-09-02T11:53:21.670Z,3.45
2022-09-02T11:58:32.910Z,3.28
2022-09-02T12:03:58.447Z,3.80
2022-09-02T12:09:07.903Z,3.73
2022-09-02T12:14:04.493Z,4.10
2022-09-02T12:19:27.745Z,3.28
2022-09-02T12:24:22.423Z,2.88
2022-09-02T12:29:35.260Z,2.95
2022-09-02T12:35:07.961Z,7.90
2022-09-02T12:40:13.983Z,12.30
2022-09-02T12:45:13.264Z,7.55
2022-09-02T12:50:12.954Z,5.22
2022-09-02T12:55:12.288Z,5.10
2022-09-02T13:05:19.731Z,3.58
2022-09-02T13:10:46.245Z,5.40
2022-09-02T13:16:02.977Z,7.82
2022-09-02T13:21:19.737Z,6.93
2022-09-02T13:26:53.521Z,6.70
2022-09-02T13:32:01.624Z,6.90
2022-09-02T13:36:56.194Z,6.95
2022-09-02T13:41:49.545Z,6.90
2022-09-02T13:46:48.752Z,6.72
2022-09-02T13:51:45.476Z,7.30
2022-09-02T13:56:40.360Z,6.95
2022-09-02T14:01:40.614Z,6.97
2022-09-02T14:06:38.684Z,7.57
2022-09-02T14:11:48.192Z,6.65
2022-09-02T14:16:45.519Z,7.20
2022-09-02T14:21:46.057Z,6.95
2022-09-02T14:26:44.337Z,6.60
2022-09-02T14:31:38.065Z,7.00
2022-09-02T14:36:38.346Z,6.50
2022-09-02T14:41:39.241Z,7.15
2022-09-02T14:46:40.606Z,6.45
2022-09-02T14:51:42.587Z,6.25
2022-09-02T14:56:52.351Z,6.60
2022-09-02T15:01:51.931Z,6.78
2022-09-02T15:12:27.508Z,7.32
2022-09-02T15:17:25.189Z,6.18
2022-09-02T15:22:36.775Z,6.28
2022-09-02T15:27:34.743Z,6.43
2022-09-02T15:32:43.223Z,6.90
2022-09-02T15:38:26.352Z,7.32
2022-09-02T15:43:31.269Z,7.70
2022-09-02T15:48:26.411Z,6.88
2022-09-02T15:53:20.014Z,7.13
2022-09-02T15:58:13.832Z,7.38
2022-09-02T16:03:12.093Z,6.85
2022-09-02T16:08:05.685Z,7.07
2022-09-02T16:13:00.838Z,6.35
2022-09-02T16:17:54.389Z,4.35
2022-09-02T16:23:01.369Z,4.57
2022-09-02T16:27:57.299Z,4.05
2022-09-02T16:32:51.818Z,4.75
2022-09-02T16:37:45.431Z,4.40
2022-09-02T16:42:40.295Z,4.30
2022-09-02T16:47:33.972Z,4.10
2022-09-02T16:52:27.181Z,4.10
2022-09-02T16:57:23.408Z,4.05
2022-09-02T17:02:25.575Z,3.80
2022-09-02T17:07:21.572Z,4.00
2022-09-02T17:12:21.376Z,4.00
2022-09-02T17:22:14.794Z,3.53
2022-09-02T17:27:08.354Z,3.65
2022-09-02T17:32:04.181Z,3.33
2022-09-02T17:37:04.378Z,3.05
2022-09-02T17:41:59.871Z,3.60
2022-09-02T17:47:01.129Z,3.60
2022-09-02T17:51:55.430Z,4.15
2022-09-02T17:57:10.133Z,3.95
2022-09-02T18:02:44.106Z,4.30
2022-09-02T18:07:49.894Z,4.15
2022-09-02T18:12:45.555Z,4.20
2022-09-02T18:17:52.259Z,4.82
2022-09-02T18:23:13.492Z,4.70
2022-09-02T18:28:44.970Z,4.82
2022-09-02T18:34:02.618Z,6.13
2022-09-02T18:39:21.319Z,5.70
2022-09-02T18:44:39.305Z,6.10
2022-09-02T18:49:38.388Z,6.38
2022-09-02T18:54:47.302Z,5.68
2022-09-02T19:00:20.472Z,5.50
2022-09-02T19:05:27.270Z,5.35
2022-09-02T19:10:28.054Z,5.82
2022-09-02T19:15:25.288Z,5.30
2022-09-02T19:20:19.184Z,5.10
2022-09-02T19:25:22.121Z,5.38
2022-09-02T19:30:29.231Z,5.50
2022-09-02T19:35:27.922Z,5.28
2022-09-02T19:40:48.753Z,6.05
2022-09-02T19:45:42.322Z,6.07
2022-09-02T19:50:45.054Z,6.00
2022-09-02T19:55:39.210Z,5.50
2022-09-02T20:00:35.346Z,5.28
2022-09-02T20:05:31.382Z,5.80
2022-09-02T20:10:28.000Z,5.53
2022-09-02T20:15:26.223Z,5.40
2022-09-02T20:20:24.011Z,5.03
2022-09-02T20:25:17.702Z,4.97
2022-09-02T20:30:19.287Z,5.00
2022-09-02T20:35:38.720Z,5.25
2022-09-02T20:40:59.231Z,5.47
2022-09-02T20:45:58.746Z,5.28
2022-09-02T20:51:01.678Z,4.80
2022-09-02T20:56:00.656Z,5.15
2022-09-02T21:01:06.774Z,4.60
2022-09-02T21:06:03.112Z,5.03
2022-09-02T21:11:08.765Z,4.78
2022-09-02T21:16:11.383Z,4.47
2022-09-02T21:21:11.740Z,4.50
2022-09-02T21:26:11.683Z,4.82
2022-09-02T21:31:15.488Z,4.72
2022-09-02T21:36:13.421Z,4.93
2022-09-02T21:41:27.320Z,4.80
2022-09-02T21:46:31.277Z,5.63
2022-09-02T21:51:33.862Z,5.07
2022-09-02T21:56:44.410Z,4.38
2022-09-02T22:01:51.145Z,4.35
2022-09-02T22:06:48.830Z,4.45
2022-09-02T22:11:50.577Z,4.70
2022-09-02T22:16:59.138Z,4.80
2022-09-02T22:22:02.511Z,4.57
2022-09-02T22:27:02.517Z,4.07
2022-09-02T22:36:58.478Z,4.35
2022-09-02T22:41:58.926Z,4.50
2022-09-02T22:47:13.548Z,3.72
2022-09-02T22:52:34.578Z,4.18
2022-09-02T22:57:39.425Z,4.07
2022-09-02T23:02:39.352Z,4.15
2022-09-02T23:07:32.992Z,4.07
2022-09-02T23:12:33.918Z,3.47
2022-09-02T23:17:36.580Z,3.75
2022-09-02T23:22:45.194Z,3.88
2022-09-02T23:27:45.226Z,4.10
2022-09-02T23:33:02.323Z,4.40
2022-09-02T23:38:21.761Z,4.28
2022-09-02T23:43:18.496Z,3.88
2022-09-02T23:48:31.738Z,4.40
2022-09-02T23:53:32.701Z,4.80
2022-09-02T23:58:41.327Z,4.78
